Time;durP1;ratioP1;P1;durP2;ratioP2;P2;SDS_P1;SDS_P2;PMS_P1;PMS_P2;Temp;Humidity;BMP_temperature;BMP_pressure;BME280_temperature;BME280_humidity;BME280_pressure;Samples;Min_cycle;Max_cycle;Signal;HPM_P1;HPM_P2
2022/05/21 00:00:14;;;;;;;7.35;5.40;;;19.10;78.70;;;;;;5093787;28;20099;-73
2022/05/21 00:02:40;;;;;;;8.15;5.25;;;19.00;78.80;;;;;;5093440;28;20058;-74
2022/05/21 00:05:06;;;;;;;10.77;5.13;;;18.90;79.50;;;;;;5093577;28;20434;-73
2022/05/21 00:07:31;;;;;;;11.57;4.60;;;18.80;79.80;;;;;;5093597;28;20035;-72
2022/05/21 00:09:57;;;;;;;8.73;5.40;;;18.80;79.90;;;;;;5093734;28;20018;-74
2022/05/21 00:12:22;;;;;;;7.45;4.25;;;18.80;79.80;;;;;;5093194;28;20043;-73
2022/05/21 00:14:48;;;;;;;7.28;4.95;;;18.90;79.70;;;;;;5093553;28;20032;-72
2022/05/21 00:17:14;;;;;;;8.27;5.47;;;19.00;79.80;;;;;;5093269;28;20070;-74
2022/05/21 00:19:39;;;;;;;8.45;5.13;;;19.00;79.70;;;;;;5093492;28;20481;-72
2022/05/21 00:22:05;;;;;;;7.55;5.10;;;19.00;79.30;;;;;;5093032;28;20044;-73
2022/05/21 00:24:31;;;;;;;6.90;5.03;;;19.00;79.70;;;;;;5093241;28;20020;-73
2022/05/21 00:26:56;;;;;;;7.55;4.32;;;18.90;78.10;;;;;;5093280;28;20028;-75
2022/05/21 00:29:26;;;;;;;7.50;4.50;;;18.80;76.80;;;;;;5093319;28;20053;-72
2022/05/21 00:31:51;;;;;;;7.82;4.32;;;18.70;77.80;;;;;;5093084;28;20052;-72
2022/05/21 00:34:17;;;;;;;5.45;3.83;;;18.50;77.20;;;;;;5093141;28;20028;-72
2022/05/21 00:36:42;;;;;;;7.57;3.53;;;18.40;76.30;;;;;;5093206;28;20028;-74
2022/05/21 00:39:08;;;;;;;5.75;3.50;;;18.30;75.90;;;;;;5092889;28;20062;-73
2022/05/21 00:41:34;;;;;;;6.15;3.95;;;18.20;76.80;;;;;;5093112;28;20026;-72
2022/05/21 00:44:02;;;;;;;5.38;3.17;;;18.20;75.90;;;;;;5092801;28;20048;-73
2022/05/21 00:46:27;;;;;;;5.40;3.05;;;18.10;76.10;;;;;;5093056;28;20077;-74
2022/05/21 00:49:22;;;;;;;5.93;3.15;;;18.00;73.60;;;;;;5092935;28;20020;-72
2022/05/21 00:52:17;;;;;;;3.45;2.50;;;17.80;74.30;;;;;;5092877;28;20043;-73
2022/05/21 00:54:48;;;;;;;3.92;2.30;;;17.80;74.00;;;;;;5084032;28;20052;-76
2022/05/21 00:57:26;;;;;;;4.35;3.13;;;17.70;75.00;;;;;;5092899;28;20070;-80
2022/05/21 00:59:57;;;;;;;5.25;2.60;;;17.70;75.30;;;;;;5093161;28;20052;-78
2022/05/21 01:02:31;;;;;;;3.65;2.80;;;17.80;75.30;;;;;;5093145;28;20043;-78
2022/05/21 01:04:58;;;;;;;4.90;2.90;;;17.80;75.20;;;;;;5092966;28;20027;-75
2022/05/21 01:07:25;;;;;;;8.18;3.35;;;17.80;74.70;;;;;;5093041;28;20028;-78
2022/05/21 01:09:53;;;;;;;3.72;3.05;;;17.80;75.20;;;;;;5094458;28;20437;-82
2022/05/21 01:12:24;;;;;;;4.50;3.08;;;17.90;76.40;;;;;;5097013;28;20039;-84
2022/05/21 01:14:51;;;;;;;4.30;3.05;;;17.90;75.50;;;;;;5079034;28;20357;-81
2022/05/21 01:17:21;;;;;;;6.00;2.95;;;17.90;75.30;;;;;;5097152;28;20520;-78
2022/05/21 01:20:03;;;;;;;4.43;2.95;;;17.90;75.60;;;;;;5096876;28;20092;-76
2022/05/21 01:22:31;;;;;;;2.72;2.22;;;17.90;75.80;;;;;;5096976;28;20068;-78
2022/05/21 01:24:57;;;;;;;4.93;3.08;;;17.90;75.60;;;;;;5096758;28;20036;-79
2022/05/21 01:27:24;;;;;;;10.48;3.22;;;18.10;76.60;;;;;;5096598;28;20545;-79
2022/05/21 01:29:51;;;;;;;5.90;2.58;;;18.40;80.10;;;;;;5096587;28;20035;-77
2022/05/21 01:32:18;;;;;;;2.58;2.00;;;18.50;77.00;;;;;;5096514;28;20032;-77
2022/05/21 01:34:44;;;;;;;3.05;2.30;;;18.60;74.90;;;;;;5078128;28;20111;-77
2022/05/21 01:37:10;;;;;;;4.72;2.30;;;18.60;73.60;;;;;;5096351;28;20431;-77
2022/05/21 01:39:36;;;;;;;2.40;2.20;;;18.70;74.30;;;;;;5096438;28;20385;-77
2022/05/21 01:42:02;;;;;;;4.95;2.72;;;18.70;73.20;;;;;;5096271;28;20065;-76
2022/05/21 01:44:39;;;;;;;4.18;2.40;;;18.70;72.60;;;;;;5096240;28;20032;-79
2022/05/21 01:47:15;;;;;;;6.15;2.55;;;18.70;73.00;;;;;;5078109;28;20062;-78
2022/05/21 01:49:42;;;;;;;3.78;2.22;;;18.70;72.70;;;;;;5096350;28;20528;-78
2022/05/21 01:52:09;;;;;;;3.58;2.33;;;18.70;72.30;;;;;;5077792;28;20442;-79
2022/05/21 01:54:35;;;;;;;4.25;2.20;;;18.60;72.00;;;;;;5096083;28;20606;-78
2022/05/21 01:57:01;;;;;;;4.85;2.35;;;18.40;72.30;;;;;;5095990;28;20055;-78
2022/05/21 01:59:27;;;;;;;3.63;2.20;;;18.40;72.80;;;;;;5077886;28;20025;-78
2022/05/21 02:01:53;;;;;;;3.17;2.28;;;18.50;72.40;;;;;;5095966;28;20465;-78
2022/05/21 02:04:19;;;;;;;4.50;2.65;;;18.40;72.50;;;;;;5096035;28;20059;-78
2022/05/21 02:06:46;;;;;;;4.90;2.45;;;18.40;72.90;;;;;;5077655;28;20388;-78
2022/05/21 02:09:12;;;;;;;4.05;2.60;;;18.20;73.30;;;;;;5095807;28;20438;-78
2022/05/21 02:11:39;;;;;;;6.82;3.03;;;18.10;74.00;;;;;;5095690;28;20115;-78
2022/05/21 02:14:05;;;;;;;7.72;2.90;;;18.10;74.20;;;;;;5095740;28;20073;-79
2022/05/21 02:16:34;;;;;;;4.95;2.90;;;18.20;73.20;;;;;;5095912;28;20025;-78
2022/05/21 02:19:01;;;;;;;4.40;3.08;;;18.30;72.60;;;;;;5095559;28;20024;-79
2022/05/21 02:21:28;;;;;;;4.95;2.63;;;18.30;71.90;;;;;;5095154;28;20407;-79
2022/05/21 02:23:54;;;;;;;5.72;2.92;;;18.10;72.30;;;;;;5095422;28;20027;-79
2022/05/21 02:26:20;;;;;;;5.95;2.75;;;18.10;72.30;;;;;;5095270;28;20024;-79
2022/05/21 02:28:45;;;;;;;3.40;2.38;;;18.10;72.70;;;;;;5095544;28;20099;-79
2022/05/21 02:31:11;;;;;;;5.82;3.05;;;18.10;72.30;;;;;;5095432;28;20151;-78
2022/05/21 02:33:36;;;;;;;3.97;2.55;;;18.00;72.60;;;;;;5095414;28;20393;-78
2022/05/21 02:36:02;;;;;;;3.80;2.78;;;18.00;72.70;;;;;;5095273;28;20036;-77
2022/05/21 02:41:13;;;;;;;3.30;2.85;;;18.00;73.40;;;;;;5095209;28;20028;-77
2022/05/21 02:43:40;;;;;;;5.45;3.28;;;17.90;73.40;;;;;;5095238;28;20035;-77
2022/05/21 02:46:06;;;;;;;3.90;3.08;;;17.80;73.70;;;;;;5095099;28;20024;-77
2022/05/21 02:48:32;;;;;;;4.63;3.00;;;17.80;73.90;;;;;;5095163;28;20043;-78
2022/05/21 02:50:57;;;;;;;4.85;2.78;;;17.80;74.00;;;;;;5094727;28;20524;-78
2022/05/21 02:53:23;;;;;;;3.95;2.88;;;17.80;73.70;;;;;;5095270;28;20042;-78
2022/05/21 02:55:51;;;;;;;3.53;2.80;;;17.80;73.00;;;;;;5095119;28;20059;-78
2022/05/21 02:58:17;;;;;;;4.40;2.95;;;17.80;73.10;;;;;;5095126;28;20429;-78
2022/05/21 03:00:44;;;;;;;5.90;2.83;;;17.80;73.40;;;;;;5094843;28;20038;-78
2022/05/21 03:03:10;;;;;;;4.50;2.67;;;17.80;73.10;;;;;;5095047;28;20101;-79
2022/05/21 03:05:35;;;;;;;5.40;2.63;;;17.70;72.90;;;;;;5094953;28;20551;-78
2022/05/21 03:10:20;;;;;;;3.28;2.15;;;17.60;72.00;;;;;;5094712;28;20115;-79
2022/05/21 03:10:50;;;;;;;3.50;2.47;;;17.70;72.60;;;;;;5094573;28;20020;-78
2022/05/21 03:13:16;;;;;;;7.53;2.95;;;17.60;73.30;;;;;;5094819;28;20032;-78
2022/05/21 03:15:42;;;;;;;4.07;2.47;;;17.60;72.90;;;;;;5076633;28;20073;-77
2022/05/21 03:18:10;;;;;;;4.93;2.78;;;17.60;73.20;;;;;;5094668;28;20020;-79
2022/05/21 03:20:36;;;;;;;3.72;2.83;;;17.60;72.30;;;;;;5094414;28;20384;-74
2022/05/21 03:23:01;;;;;;;4.85;2.80;;;17.50;71.80;;;;;;5094595;28;20024;-73
2022/05/21 03:25:27;;;;;;;4.30;2.65;;;17.40;72.70;;;;;;5094551;28;20410;-74
2022/05/21 03:27:53;;;;;;;2.97;2.53;;;17.20;72.50;;;;;;5075935;28;20024;-74
2022/05/21 03:30:22;;;;;;;5.05;2.55;;;17.10;72.60;;;;;;5076289;28;20027;-73
2022/05/21 03:32:47;;;;;;;4.40;2.80;;;17.10;73.20;;;;;;5093767;28;20083;-73
2022/05/21 03:35:16;;;;;;;5.07;2.80;;;16.90;73.80;;;;;;5094219;28;20024;-73
2022/05/21 03:37:42;;;;;;;4.60;2.63;;;16.80;74.40;;;;;;5097057;28;20070;-73
2022/05/21 03:40:10;;;;;;;2.92;2.45;;;16.70;74.70;;;;;;5094971;28;20031;-73
2022/05/21 03:42:37;;;;;;;4.85;2.80;;;16.70;74.90;;;;;;5094947;28;20388;-72
2022/05/21 03:45:03;;;;;;;3.95;2.70;;;16.70;74.80;;;;;;5093992;28;20361;-72
2022/05/21 03:47:29;;;;;;;6.68;2.60;;;16.70;74.60;;;;;;5094143;28;20020;-74
2022/05/21 03:49:54;;;;;;;4.10;2.80;;;16.70;74.60;;;;;;5094104;28;20081;-74
2022/05/21 03:52:20;;;;;;;4.63;3.10;;;16.70;74.90;;;;;;5093856;28;20040;-74
2022/05/21 03:54:46;;;;;;;5.25;3.35;;;16.70;74.90;;;;;;5093720;28;20027;-74
2022/05/21 03:57:14;;;;;;;3.83;2.72;;;16.60;75.10;;;;;;5093875;28;20024;-73
2022/05/21 03:59:40;;;;;;;4.43;3.20;;;16.60;75.10;;;;;;5093881;28;20024;-72
2022/05/21 04:02:06;;;;;;;2.95;2.65;;;16.60;75.10;;;;;;5093712;28;20028;-72
2022/05/21 04:04:31;;;;;;;3.15;2.40;;;16.60;75.00;;;;;;5093702;28;20017;-72
2022/05/21 04:06:57;;;;;;;4.28;3.03;;;16.60;74.90;;;;;;5093771;28;20186;-72
2022/05/21 04:09:23;;;;;;;4.30;3.15;;;16.70;74.80;;;;;;5093848;28;20048;-72
2022/05/21 04:11:48;;;;;;;10.93;2.72;;;16.50;74.90;;;;;;5093730;28;20118;-74
2022/05/21 04:14:14;;;;;;;8.95;3.95;;;16.60;75.00;;;;;;5093810;28;20044;-72
2022/05/21 04:16:41;;;;;;;5.00;3.00;;;16.60;74.90;;;;;;5093533;28;20421;-72
2022/05/21 04:19:07;;;;;;;4.90;3.35;;;16.60;74.80;;;;;;5093430;28;20046;-73
2022/05/21 04:21:32;;;;;;;5.13;3.50;;;16.40;75.00;;;;;;5093217;28;20083;-73
2022/05/21 04:23:58;;;;;;;4.07;3.20;;;16.20;76.50;;;;;;5093318;28;20027;-73
2022/05/21 04:26:24;;;;;;;6.13;3.28;;;16.20;76.70;;;;;;5093569;28;20024;-74
2022/05/21 04:28:49;;;;;;;5.28;3.40;;;16.20;77.00;;;;;;5093434;28;20028;-74
2022/05/21 04:31:15;;;;;;;4.35;3.30;;;16.20;77.20;;;;;;5093280;28;20040;-73
2022/05/21 04:33:40;;;;;;;4.97;3.42;;;16.30;77.00;;;;;;5093586;28;20040;-74
2022/05/21 04:36:18;;;;;;;5.35;3.70;;;16.00;78.00;;;;;;5075172;28;20063;-73
2022/05/21 04:38:48;;;;;;;5.40;3.63;;;16.00;78.00;;;;;;5093136;28;20027;-73
2022/05/21 04:41:14;;;;;;;4.80;3.67;;;16.00;77.10;;;;;;5093437;28;20024;-73
2022/05/21 04:43:40;;;;;;;5.75;3.05;;;16.00;76.80;;;;;;5093342;28;20016;-73
2022/05/21 04:46:06;;;;;;;5.75;3.35;;;16.10;76.90;;;;;;5093178;28;20468;-72
2022/05/21 04:48:32;;;;;;;4.40;2.45;;;16.20;77.30;;;;;;5093170;28;20028;-73
2022/05/21 04:50:59;;;;;;;3.80;3.40;;;16.30;77.00;;;;;;5075001;28;20027;-73
2022/05/21 04:53:25;;;;;;;4.45;3.15;;;16.40;76.60;;;;;;5093201;28;20035;-72
2022/05/21 04:55:50;;;;;;;6.53;3.42;;;16.50;76.30;;;;;;5093147;28;20388;-73
2022/05/21 04:58:16;;;;;;;5.38;3.38;;;16.60;76.00;;;;;;5092865;28;20036;-73
2022/05/21 05:00:41;;;;;;;5.20;3.10;;;16.50;75.00;;;;;;5093084;28;20020;-74
2022/05/21 05:03:15;;;;;;;6.85;3.72;;;16.50;74.90;;;;;;5093132;28;20038;-72
2022/05/21 05:05:43;;;;;;;6.93;3.38;;;16.50;74.90;;;;;;5092821;28;20099;-74
2022/05/21 05:08:09;;;;;;;6.88;3.35;;;16.40;73.70;;;;;;5092805;28;20029;-74
2022/05/21 05:10:36;;;;;;;3.97;3.22;;;16.30;73.40;;;;;;5092948;28;20032;-73
2022/05/21 05:13:02;;;;;;;6.40;3.38;;;16.10;72.40;;;;;;5092895;28;20028;-73
2022/05/21 05:15:28;;;;;;;7.50;3.40;;;16.00;72.40;;;;;;5092434;28;20472;-73
2022/05/21 05:18:01;;;;;;;7.10;3.45;;;15.90;73.50;;;;;;5092761;28;20032;-72
2022/05/21 05:20:27;;;;;;;6.28;3.35;;;15.60;73.10;;;;;;5092394;28;20024;-73
2022/05/21 05:22:53;;;;;;;4.35;3.35;;;15.50;73.90;;;;;;5092716;28;20093;-74
2022/05/21 05:25:19;;;;;;;6.68;3.40;;;15.50;74.40;;;;;;5092606;28;20405;-73
2022/05/21 05:27:49;;;;;;;6.72;3.33;;;15.70;73.70;;;;;;5092340;28;20103;-73
2022/05/21 05:30:16;;;;;;;8.73;2.92;;;15.90;73.00;;;;;;5092558;28;20377;-74
2022/05/21 05:32:42;;;;;;;4.43;2.97;;;16.00;73.30;;;;;;5092284;28;20111;-73
2022/05/21 05:35:08;;;;;;;4.18;3.25;;;16.10;73.40;;;;;;5092576;28;20432;-73
2022/05/21 05:37:34;;;;;;;8.80;3.47;;;16.20;73.00;;;;;;5092411;28;20077;-73
2022/05/21 05:40:00;;;;;;;5.05;3.38;;;16.10;73.40;;;;;;5092494;28;20361;-74
2022/05/21 05:42:26;;;;;;;6.38;3.38;;;15.80;73.10;;;;;;5092485;28;20023;-73
2022/05/21 05:44:52;;;;;;;7.47;3.65;;;15.70;72.70;;;;;;5092453;28;20032;-73
2022/05/21 05:47:18;;;;;;;6.35;2.70;;;15.50;72.90;;;;;;5092564;28;20065;-74
2022/05/21 05:49:43;;;;;;;5.28;3.35;;;15.40;74.00;;;;;;5074402;28;20028;-74
2022/05/21 05:52:09;;;;;;;5.85;3.28;;;15.60;73.70;;;;;;5091959;28;20120;-74
2022/05/21 05:54:35;;;;;;;4.85;3.22;;;15.70;72.60;;;;;;5092520;28;20066;-73
2022/05/21 05:57:01;;;;;;;5.53;2.70;;;16.00;71.30;;;;;;5095689;28;20099;-73
2022/05/21 06:04:55;;;;;;;3.03;2.22;;;16.40;69.00;;;;;;5096249;28;20070;-73
2022/05/21 06:07:21;;;;;;;6.80;2.72;;;16.40;68.80;;;;;;5095730;28;20028;-72
2022/05/21 06:09:47;;;;;;;3.42;2.80;;;16.40;68.60;;;;;;5095475;28;20052;-73
2022/05/21 06:12:14;;;;;;;4.65;2.67;;;16.50;67.80;;;;;;5095887;28;20074;-73
2022/05/21 06:14:41;;;;;;;2.83;2.25;;;16.40;68.10;;;;;;5095712;28;20027;-72
2022/05/21 06:17:07;;;;;;;3.55;1.95;;;16.50;67.40;;;;;;5095399;28;20028;-73
2022/05/21 06:19:33;;;;;;;4.72;2.30;;;16.70;66.40;;;;;;5095276;28;20032;-73
2022/05/21 06:22:00;;;;;;;8.80;2.70;;;16.80;66.50;;;;;;5095446;28;20535;-72
2022/05/21 06:24:25;;;;;;;6.60;4.38;;;16.80;66.60;;;;;;5095545;28;20498;-73
2022/05/21 06:26:51;;;;;;;4.97;2.33;;;16.60;66.50;;;;;;5077112;28;20115;-72
2022/05/21 06:29:16;;;;;;;2.95;2.33;;;16.70;67.40;;;;;;5095198;28;20030;-72
2022/05/21 06:31:42;;;;;;;3.33;1.92;;;16.90;66.40;;;;;;5095286;28;20031;-72
2022/05/21 06:34:08;;;;;;;3.60;1.80;;;17.20;65.50;;;;;;5095298;28;20115;-73
2022/05/21 06:36:33;;;;;;;3.72;1.45;;;17.30;64.90;;;;;;5095218;28;20032;-72
2022/05/21 06:38:59;;;;;;;3.53;1.67;;;17.30;61.80;;;;;;5094961;28;20074;-72
2022/05/21 06:41:28;;;;;;;2.70;1.50;;;17.40;60.40;;;;;;5095188;28;20097;-73
2022/05/21 06:43:54;;;;;;;2.22;1.27;;;17.50;58.50;;;;;;5094936;28;20115;-73
2022/05/21 06:46:20;;;;;;;3.72;1.70;;;17.60;59.40;;;;;;5094889;28;20056;-73
2022/05/21 06:48:47;;;;;;;2.80;1.40;;;17.70;57.70;;;;;;5094735;28;20027;-72
2022/05/21 06:51:13;;;;;;;3.13;1.20;;;17.50;58.10;;;;;;5094718;28;20025;-73
2022/05/21 06:53:40;;;;;;;4.85;1.50;;;17.40;57.10;;;;;;5094494;28;20055;-73
2022/05/21 06:56:11;;;;;;;4.25;1.30;;;17.60;57.00;;;;;;5094612;28;20024;-72
2022/05/21 06:58:38;;;;;;;2.13;1.00;;;17.70;58.40;;;;;;5094023;28;20020;-72
2022/05/21 07:01:04;;;;;;;1.98;1.10;;;17.80;54.10;;;;;;5093905;28;20055;-73
2022/05/21 07:03:29;;;;;;;3.60;1.10;;;17.70;54.70;;;;;;5094621;28;20091;-73
2022/05/21 07:08:39;;;;;;;2.75;1.10;;;17.70;53.40;;;;;;5093998;28;20085;-72
2022/05/21 07:11:06;;;;;;;0.85;0.70;;;17.40;53.20;;;;;;5094266;28;20387;-73
2022/05/21 07:13:32;;;;;;;2.42;1.20;;;17.40;54.70;;;;;;5094115;28;20049;-73
2022/05/21 07:15:58;;;;;;;2.50;1.13;;;17.40;55.70;;;;;;5094461;28;20020;-74
2022/05/21 07:18:27;;;;;;;1.65;0.70;;;17.30;56.10;;;;;;5094400;28;20111;-80
2022/05/21 07:20:54;;;;;;;3.17;0.90;;;17.40;56.30;;;;;;5093804;28;20044;-76
2022/05/21 07:23:21;;;;;;;1.30;1.08;;;17.80;54.60;;;;;;5094045;28;20063;-76
2022/05/21 07:25:47;;;;;;;3.30;0.90;;;18.30;54.20;;;;;;5075907;28;20016;-77
2022/05/21 07:28:13;;;;;;;1.15;0.70;;;18.50;54.20;;;;;;5093912;28;20024;-77
2022/05/21 07:30:40;;;;;;;1.70;0.77;;;18.80;52.80;;;;;;5094112;28;20413;-77
2022/05/21 07:33:10;;;;;;;3.50;1.20;;;19.10;51.30;;;;;;5094032;28;20086;-77
2022/05/21 07:35:37;;;;;;;2.53;0.60;;;19.30;51.00;;;;;;5094069;28;20012;-76
2022/05/21 07:38:07;;;;;;;1.05;0.77;;;19.40;50.60;;;;;;5093690;28;20054;-77
2022/05/21 07:40:33;;;;;;;1.55;0.88;;;19.50;51.10;;;;;;5093177;28;20020;-77
2022/05/21 07:42:59;;;;;;;0.85;0.60;;;19.80;49.30;;;;;;5092719;28;20062;-77
2022/05/21 07:45:25;;;;;;;1.48;0.88;;;20.00;47.50;;;;;;5093827;28;20016;-77
2022/05/21 07:47:51;;;;;;;0.80;0.75;;;20.20;45.30;;;;;;5094018;28;20076;-77
2022/05/21 07:50:18;;;;;;;2.72;0.70;;;20.10;47.00;;;;;;5093588;28;20020;-77
2022/05/21 07:52:45;;;;;;;2.33;0.90;;;19.90;43.50;;;;;;5093703;28;20028;-77
2022/05/21 07:55:12;;;;;;;5.03;1.17;;;19.90;43.80;;;;;;5075431;28;20035;-77
2022/05/21 07:57:37;;;;;;;2.45;1.38;;;20.10;44.70;;;;;;5093719;28;20095;-77
2022/05/21 08:00:05;;;;;;;2.38;0.70;;;20.20;43.10;;;;;;5093354;28;20056;-78
2022/05/21 08:02:30;;;;;;;2.22;0.77;;;20.00;43.10;;;;;;5093007;28;20039;-77
2022/05/21 08:04:56;;;;;;;0.85;0.57;;;20.20;42.60;;;;;;5093301;28;20016;-77
2022/05/21 08:07:22;;;;;;;1.15;0.70;;;20.30;43.20;;;;;;5075236;28;20119;-77
2022/05/21 08:09:48;;;;;;;1.33;0.40;;;20.50;41.60;;;;;;5093062;28;20024;-78
2022/05/21 08:12:14;;;;;;;2.50;0.57;;;20.50;40.70;;;;;;5093413;28;20027;-77
2022/05/21 08:14:43;;;;;;;1.05;0.60;;;20.10;41.10;;;;;;5074696;28;20427;-77
2022/05/21 08:17:09;;;;;;;3.10;0.60;;;19.90;39.40;;;;;;5093121;28;20032;-77
2022/05/21 08:19:35;;;;;;;2.67;0.93;;;19.50;40.80;;;;;;5074402;28;20483;-77
2022/05/21 08:27:37;;;;;;;1.58;1.15;;;19.30;42.00;;;;;;5061595;28;20085;-77
2022/05/21 08:30:04;;;;;;;1.25;0.73;;;19.30;42.10;;;;;;5093183;28;20028;-78
2022/05/21 08:32:29;;;;;;;3.60;0.80;;;19.30;42.30;;;;;;5092983;28;20028;-77
2022/05/21 08:34:55;;;;;;;1.85;0.88;;;19.20;42.20;;;;;;5092658;28;20016;-78
2022/05/21 08:37:20;;;;;;;1.02;0.50;;;18.90;43.70;;;;;;5074666;28;20384;-77
2022/05/21 08:39:47;;;;;;;1.10;0.80;;;18.70;43.40;;;;;;5092881;28;20496;-78
2022/05/21 08:42:23;;;;;;;1.88;0.90;;;18.80;44.60;;;;;;5092641;28;20115;-77
2022/05/21 08:44:54;;;;;;;1.75;0.68;;;18.90;44.20;;;;;;5092876;28;20103;-78
2022/05/21 08:47:32;;;;;;;1.05;0.82;;;19.00;44.00;;;;;;5092787;28;20078;-78
2022/05/21 08:50:13;;;;;;;1.70;1.08;;;19.40;43.40;;;;;;5074721;28;20365;-77
2022/05/21 08:52:52;;;;;;;2.47;1.00;;;19.50;43.10;;;;;;5093049;28;20027;-77
2022/05/21 08:55:21;;;;;;;1.63;0.70;;;19.40;43.80;;;;;;5093812;28;20028;-76
2022/05/21 08:57:59;;;;;;;1.73;0.50;;;19.50;42.70;;;;;;5093636;28;20051;-77
2022/05/21 09:00:35;;;;;;;1.40;0.70;;;19.40;40.90;;;;;;5075621;28;20441;-77
2022/05/21 09:03:06;;;;;;;0.43;0.43;;;19.30;41.40;;;;;;5092737;28;20070;-77
2022/05/21 09:05:32;;;;;;;3.53;1.00;;;19.50;42.40;;;;;;5092566;28;20025;-77
2022/05/21 09:08:13;;;;;;;1.30;0.70;;;19.60;42.40;;;;;;5092805;28;20020;-77
2022/05/21 09:10:50;;;;;;;1.80;0.57;;;19.50;40.30;;;;;;5092835;28;20020;-76
2022/05/21 09:13:18;;;;;;;2.83;0.45;;;19.30;42.60;;;;;;5092248;28;20107;-77
2022/05/21 09:18:31;;;;;;;1.77;0.73;;;19.40;42.00;;;;;;5092847;28;20043;-77
2022/05/21 09:21:13;;;;;;;0.95;0.40;;;19.40;41.70;;;;;;5092412;28;20446;-78
2022/05/21 09:23:51;;;;;;;0.45;0.40;;;19.30;42.10;;;;;;5092546;28;20028;-77
2022/05/21 09:26:21;;;;;;;1.92;0.80;;;19.40;40.70;;;;;;5091817;28;20024;-77
2022/05/21 09:28:48;;;;;;;10.80;8.02;;;19.30;42.00;;;;;;5092244;28;20024;-77
2022/05/21 09:31:20;;;;;;;2.30;0.80;;;19.30;43.50;;;;;;5094701;28;20020;-77
2022/05/21 09:33:46;;;;;;;0.50;0.45;;;19.40;42.70;;;;;;5095711;28;20031;-77
2022/05/21 09:36:18;;;;;;;1.15;0.45;;;19.60;40.70;;;;;;5077615;28;20166;-77
2022/05/21 09:38:53;;;;;;;3.15;1.60;;;19.80;40.10;;;;;;5095870;28;20020;-75
2022/05/21 09:41:22;;;;;;;1.15;0.50;;;19.60;41.90;;;;;;5096147;28;20066;-72
2022/05/21 09:46:44;;;;;;;1.10;0.43;;;19.50;41.90;;;;;;5095602;28;20023;-74
2022/05/21 09:49:30;;;;;;;1.02;0.47;;;19.90;42.00;;;;;;5095436;28;20059;-73
2022/05/21 09:52:02;;;;;;;1.02;0.60;;;20.00;40.30;;;;;;5096010;28;20020;-75
2022/05/21 09:54:34;;;;;;;0.73;0.60;;;20.00;39.50;;;;;;5095743;28;20028;-73
2022/05/21 09:57:00;;;;;;;0.88;0.45;;;20.00;39.10;;;;;;5077406;28;20392;-74
2022/05/21 09:59:28;;;;;;;1.55;0.70;;;20.20;38.90;;;;;;5095508;28;20024;-73
2022/05/21 10:01:59;;;;;;;4.50;0.40;;;20.20;39.80;;;;;;5095427;28;20427;-73
2022/05/21 10:04:30;;;;;;;1.02;0.40;;;20.30;39.70;;;;;;5095359;28;20017;-74
2022/05/21 10:12:54;;;;;;;0.70;0.50;;;20.70;41.20;;;;;;5095910;28;20101;-74
2022/05/21 10:15:33;;;;;;;0.52;0.32;;;20.60;38.00;;;;;;5095254;28;20073;-72
2022/05/21 10:18:07;;;;;;;2.60;0.60;;;20.70;37.80;;;;;;5095507;28;20116;-72
2022/05/21 10:20:38;;;;;;;0.75;0.40;;;20.70;37.80;;;;;;5095398;28;20016;-75
2022/05/21 10:23:27;;;;;;;1.00;0.47;;;20.70;37.20;;;;;;5077073;28;20062;-74
2022/05/21 10:26:06;;;;;;;1.45;0.30;;;20.70;37.80;;;;;;5095007;28;20066;-74
2022/05/21 10:28:42;;;;;;;1.98;0.40;;;21.00;37.10;;;;;;5095172;28;20057;-74
2022/05/21 10:31:27;;;;;;;;;;;20.80;37.70;;;;;;5095683;28;20023;-73
2022/05/21 10:34:33;;;;;;;2.35;1.17;;;21.20;36.20;;;;;;5076949;28;19908;-74
2022/05/21 10:37:14;;;;;;;0.90;0.30;;;21.20;34.60;;;;;;5058034;28;20067;-74
2022/05/21 10:39:42;;;;;;;0.60;0.45;;;21.30;35.70;;;;;;5095105;28;20035;-74
2022/05/21 10:42:33;;;;;;;1.77;0.35;;;21.30;35.10;;;;;;5094686;28;20039;-73
2022/05/21 10:45:22;;;;;;;0.93;0.30;;;21.50;34.20;;;;;;5094913;28;20016;-74
2022/05/21 10:48:21;;;;;;;0.52;0.40;;;21.30;34.80;;;;;;5094948;28;20023;-74
2022/05/21 10:51:02;;;;;;;0.38;0.32;;;21.30;34.10;;;;;;5094629;28;20066;-74
2022/05/21 10:53:37;;;;;;;0.93;0.40;;;21.70;34.30;;;;;;5094895;28;20081;-72
2022/05/21 10:56:28;;;;;;;1.85;0.65;;;21.70;33.10;;;;;;5094792;28;20525;-79
2022/05/21 10:59:05;;;;;;;0.45;0.38;;;21.80;33.30;;;;;;5094533;28;20036;-76
2022/05/21 11:01:43;;;;;;;1.10;0.30;;;22.00;32.70;;;;;;5094642;28;20445;-75
2022/05/21 11:04:28;;;;;;;2.08;0.75;;;22.40;30.80;;;;;;5094469;28;20020;-75
2022/05/21 11:07:25;;;;;;;1.13;0.50;;;22.30;31.60;;;;;;5075812;28;20028;-75
2022/05/21 11:10:18;;;;;;;1.55;0.57;;;22.40;31.40;;;;;;5094378;28;20028;-75
2022/05/21 11:12:58;;;;;;;0.85;0.35;;;22.90;31.10;;;;;;5094293;28;20066;-75
2022/05/21 11:15:47;;;;;;;0.43;0.20;;;23.00;30.00;;;;;;5094270;28;20016;-75
2022/05/21 11:18:16;;;;;;;2.08;0.20;;;22.90;30.20;;;;;;5094560;28;20472;-77
2022/05/21 11:20:55;;;;;;;2.58;0.40;;;22.80;28.80;;;;;;5094262;28;20044;-75
2022/05/21 11:23:26;;;;;;;0.90;0.30;;;22.70;28.90;;;;;;5094330;28;20039;-75
2022/05/21 11:26:04;;;;;;;2.22;0.30;;;22.70;29.30;;;;;;5094034;28;20069;-78
2022/05/21 11:28:49;;;;;;;0.50;0.13;;;23.10;27.90;;;;;;5094156;28;20230;-75
2022/05/21 11:37:19;;;;;;;0.52;0.30;;;23.20;28.10;;;;;;5093918;28;20043;-75
2022/05/21 11:39:39;;;;;;;;;;;23.00;30.00;;;;;;5094419;28;20637;-78
2022/05/21 11:42:14;;;;;;;1.95;0.25;;;23.40;28.20;;;;;;5093617;28;19912;-74
2022/05/21 11:44:59;;;;;;;0.30;0.25;;;23.40;29.30;;;;;;5093832;28;20357;-74
2022/05/21 11:47:33;;;;;;;0.40;0.30;;;23.70;27.70;;;;;;5093523;28;20058;-74
2022/05/21 11:50:01;;;;;;;1.27;0.38;;;23.70;29.10;;;;;;5093538;28;20016;-75
2022/05/21 11:52:27;;;;;;;0.28;0.22;;;23.40;26.60;;;;;;5093532;28;20021;-75
2022/05/21 11:55:00;;;;;;;1.20;0.30;;;23.40;25.00;;;;;;5093222;28;20498;-74
2022/05/21 11:57:38;;;;;;;0.65;0.20;;;23.10;27.30;;;;;;5093400;28;20084;-76
2022/05/21 12:00:09;;;;;;;0.70;0.35;;;22.80;28.60;;;;;;5093528;28;20024;-75
2022/05/21 12:02:38;;;;;;;0.52;0.20;;;23.30;26.80;;;;;;5093380;28;20396;-75
2022/05/21 12:05:11;;;;;;;0.20;0.20;;;23.80;24.10;;;;;;5093297;28;20021;-76
2022/05/21 12:07:48;;;;;;;2.70;0.20;;;24.20;23.30;;;;;;5075008;28;20032;-80
2022/05/21 12:10:24;;;;;;;1.20;0.20;;;23.80;23.10;;;;;;5093046;28;20050;-77
2022/05/21 12:13:12;;;;;;;0.40;0.20;;;23.90;24.10;;;;;;5092976;28;20035;-74
2022/05/21 12:15:46;;;;;;;0.10;0.10;;;23.90;23.50;;;;;;5093093;28;20024;-75
2022/05/21 12:18:33;;;;;;;0.98;0.32;;;23.40;23.00;;;;;;5075036;28;20376;-74
2022/05/21 12:20:59;;;;;;;0.45;0.22;;;23.10;23.60;;;;;;5092937;28;20377;-75
2022/05/21 12:23:33;;;;;;;0.98;0.20;;;23.30;24.90;;;;;;5093131;28;20036;-79
2022/05/21 12:26:16;;;;;;;2.30;0.20;;;23.40;23.60;;;;;;5093036;28;20026;-77
2022/05/21 12:29:08;;;;;;;0.93;0.47;;;23.20;23.70;;;;;;5093089;28;20419;-78
2022/05/21 12:31:39;;;;;;;0.10;0.05;;;23.40;22.90;;;;;;5079186;28;20040;-80
2022/05/21 12:34:22;;;;;;;0.50;0.17;;;23.30;23.80;;;;;;5092877;28;20077;-79
2022/05/21 12:36:58;;;;;;;0.55;0.10;;;23.30;23.80;;;;;;5092794;28;20027;-80
2022/05/21 12:39:30;;;;;;;1.02;0.25;;;23.30;24.40;;;;;;5092801;28;20023;-79
2022/05/21 12:42:13;;;;;;;0.70;0.10;;;23.40;24.50;;;;;;5095392;28;20030;-80
2022/05/21 12:44:45;;;;;;;0.93;0.15;;;23.80;24.90;;;;;;5075487;28;20034;-79
2022/05/21 12:47:13;;;;;;;0.28;0.10;;;23.70;23.50;;;;;;5093015;28;20348;-79
2022/05/21 12:49:50;;;;;;;1.45;0.30;;;23.40;25.10;;;;;;5092729;28;20024;-79
2022/05/21 12:52:22;;;;;;;1.75;0.20;;;23.90;25.20;;;;;;5092877;28;20472;-78
2022/05/21 12:54:49;;;;;;;0.75;0.20;;;24.40;22.90;;;;;;5092582;28;20507;-80
2022/05/21 12:57:16;;;;;;;0.20;0.20;;;24.80;22.10;;;;;;5092818;28;20031;-79
2022/05/21 12:59:42;;;;;;;1.38;0.20;;;25.00;22.00;;;;;;5092985;28;20468;-80
2022/05/21 13:02:17;;;;;;;1.25;0.20;;;24.50;23.50;;;;;;5092741;28;20043;-79
2022/05/21 13:04:45;;;;;;;;;;;24.80;23.10;;;;;;5093503;28;20103;-80
2022/05/21 13:07:38;;;;;;;0.30;0.10;;;25.30;21.20;;;;;;5096861;28;19904;-78
2022/05/21 13:10:15;;;;;;;0.28;0.10;;;25.40;20.60;;;;;;5097106;28;20097;-79
2022/05/21 13:12:49;;;;;;;0.20;0.20;;;25.50;19.90;;;;;;5096812;28;20024;-79
2022/05/21 13:15:32;;;;;;;0.43;0.38;;;25.20;19.30;;;;;;5096874;28;20031;-78
2022/05/21 13:18:17;;;;;;;0.15;0.10;;;24.80;19.60;;;;;;5097065;28;20020;-80
2022/05/21 13:20:54;;;;;;;0.20;0.10;;;24.90;20.20;;;;;;5096750;28;20068;-75
2022/05/21 13:23:31;;;;;;;0.60;0.10;;;24.50;20.00;;;;;;5096663;28;20043;-75
2022/05/21 13:25:56;;;;;;;1.73;0.35;;;24.40;20.90;;;;;;5096724;28;20480;-75
2022/05/21 13:28:25;;;;;;;0.98;0.10;;;24.60;20.30;;;;;;5096381;28;20099;-76
2022/05/21 13:30:51;;;;;;;0.28;0.10;;;24.90;19.60;;;;;;5096553;28;20016;-75
2022/05/21 13:33:44;;;;;;;0.10;0.03;;;24.90;19.60;;;;;;5096562;28;20095;-74
2022/05/21 13:36:15;;;;;;;0.10;0.00;;;24.50;20.00;;;;;;5078042;28;20060;-75